createdAt,value
2023-04-26T00:01:55.130Z,81.01
2023-04-26T00:04:21.842Z,82.32
2023-04-26T00:06:49.389Z,83.15
2023-04-26T00:09:16.393Z,83.67
2023-04-26T00:14:09.415Z,84.60
2023-04-26T00:16:36.086Z,84.78
2023-04-26T00:19:02.866Z,85.19
2023-04-26T00:21:29.373Z,85.41
2023-04-26T00:23:55.942Z,85.47
2023-04-26T00:26:22.693Z,85.04
2023-04-26T00:28:49.284Z,84.80
2023-04-26T00:31:16.662Z,83.51
2023-04-26T00:33:44.209Z,82.85
2023-04-26T00:36:10.979Z,83.61
2023-04-26T00:38:37.420Z,81.85
2023-04-26T00:41:03.910Z,81.50
2023-04-26T00:43:30.467Z,82.31
2023-04-26T00:45:57.110Z,83.18
2023-04-26T00:48:23.712Z,83.81
2023-04-26T00:50:50.491Z,83.59
2023-04-26T00:53:17.883Z,83.01
2023-04-26T00:55:44.920Z,83.31
2023-04-26T00:58:11.407Z,83.57
2023-04-26T01:00:37.966Z,84.21
2023-04-26T01:03:04.884Z,85.03
2023-04-26T01:05:31.522Z,84.42
2023-04-26T01:07:59.830Z,85.17
2023-04-26T01:10:27.572Z,85.22
2023-04-26T01:12:54.874Z,84.64
2023-04-26T01:15:27.872Z,84.35
2023-04-26T01:17:54.756Z,85.41
2023-04-26T01:20:24.296Z,85.52
2023-04-26T01:22:53.325Z,86.57
2023-04-26T01:25:22.397Z,88.09
2023-04-26T01:27:48.870Z,88.12
2023-04-26T01:30:15.344Z,87.45
2023-04-26T01:32:41.802Z,86.02
2023-04-26T01:35:08.708Z,85.69
2023-04-26T01:37:35.316Z,86.41
2023-04-26T01:40:01.791Z,85.96
2023-04-26T01:42:28.280Z,85.96
2023-04-26T01:44:54.783Z,86.14
2023-04-26T01:47:21.674Z,86.37
2023-04-26T01:49:48.375Z,87.42
2023-04-26T01:52:14.853Z,88.92
2023-04-26T01:54:41.281Z,89.82
2023-04-26T01:57:07.731Z,89.63
2023-04-26T01:59:34.231Z,90.11
2023-04-26T02:02:00.931Z,91.54
2023-04-26T02:04:28.269Z,92.61
2023-04-26T02:06:54.728Z,92.68
2023-04-26T02:09:21.171Z,93.12
2023-04-26T02:11:47.598Z,93.01
2023-04-26T02:14:14.148Z,93.19
2023-04-26T02:16:40.804Z,92.60
2023-04-26T02:19:10.942Z,90.39
2023-04-26T02:21:58.126Z,89.17
2023-04-26T02:24:26.121Z,88.99
2023-04-26T02:26:57.439Z,90.74
2023-04-26T02:29:42.264Z,90.51
2023-04-26T02:32:09.949Z,90.98
2023-04-26T02:34:36.580Z,90.63
2023-04-26T02:37:03.083Z,90.59
2023-04-26T02:39:29.698Z,91.31
2023-04-26T02:41:56.267Z,90.76
2023-04-26T02:44:22.764Z,88.93
2023-04-26T02:46:49.413Z,91.21
2023-04-26T02:49:16.563Z,91.97
2023-04-26T02:51:43.077Z,91.01
2023-04-26T02:54:09.544Z,91.62
2023-04-26T02:56:35.979Z,91.37
2023-04-26T02:59:02.475Z,92.66
2023-04-26T03:01:28.980Z,93.79
2023-04-26T03:03:55.867Z,94.90
2023-04-26T03:06:22.351Z,95.79
2023-04-26T03:08:48.784Z,96.51
2023-04-26T03:11:15.271Z,97.46
2023-04-26T03:13:41.814Z,95.74
2023-04-26T03:16:08.420Z,96.62
2023-04-26T03:18:34.873Z,97.76
2023-04-26T03:21:01.378Z,99.01
2023-04-26T03:23:28.730Z,100.00
2023-04-26T03:25:55.298Z,99.98
2023-04-26T03:28:21.742Z,100.00
2023-04-26T03:30:50.014Z,100.00
2023-04-26T03:33:16.877Z,100.00
2023-04-26T03:35:43.840Z,100.00
2023-04-26T03:38:10.330Z,100.00
2023-04-26T03:40:36.811Z,100.00
2023-04-26T03:43:03.380Z,100.00
2023-04-26T03:45:29.893Z,99.86
2023-04-26T03:47:56.814Z,100.00
2023-04-26T03:50:23.602Z,99.74
2023-04-26T03:52:50.115Z,99.76
2023-04-26T03:55:16.972Z,99.04
2023-04-26T03:57:43.382Z,100.00
2023-04-26T04:00:11.924Z,100.00
2023-04-26T04:02:38.431Z,100.00
2023-04-26T04:05:05.342Z,100.00
2023-04-26T04:07:32.924Z,100.00
2023-04-26T04:10:02.633Z,100.00
2023-04-26T04:12:29.167Z,100.00
2023-04-26T04:14:55.631Z,100.00
2023-04-26T04:17:22.182Z,99.87
2023-04-26T04:19:48.685Z,100.00
2023-04-26T04:22:15.395Z,98.41
2023-04-26T04:24:44.175Z,97.28
2023-04-26T04:27:11.533Z,98.19
2023-04-26T04:29:38.184Z,98.80
2023-04-26T04:32:05.141Z,99.38
2023-04-26T04:34:36.018Z,99.42
2023-04-26T04:37:02.758Z,99.74
2023-04-26T04:39:29.254Z,100.00
2023-04-26T04:41:55.777Z,100.00
2023-04-26T04:44:24.040Z,99.71
2023-04-26T04:46:50.562Z,100.00
2023-04-26T04:49:18.954Z,100.00
2023-04-26T04:51:45.621Z,100.00
2023-04-26T04:54:12.037Z,100.00
2023-04-26T04:56:38.768Z,97.88
2023-04-26T04:59:05.346Z,96.47
2023-04-26T05:01:38.743Z,96.12
2023-04-26T05:04:06.896Z,95.90
2023-04-26T05:06:33.650Z,93.75
2023-04-26T05:09:02.936Z,91.34
2023-04-26T05:11:29.362Z,91.92
2023-04-26T05:13:56.080Z,93.37
2023-04-26T05:16:22.857Z,95.18
2023-04-26T05:18:49.541Z,95.58
2023-04-26T05:21:16.405Z,96.06
2023-04-26T05:23:43.205Z,95.84
2023-04-26T05:26:15.335Z,96.29
2023-04-26T05:28:42.172Z,97.14
2023-04-26T05:31:11.409Z,97.67
2023-04-26T05:33:38.461Z,98.16
2023-04-26T05:36:05.377Z,98.14
2023-04-26T05:38:37.122Z,97.68
2023-04-26T05:41:03.956Z,97.63
2023-04-26T05:43:32.704Z,98.16
2023-04-26T05:45:59.299Z,97.24
2023-04-26T05:48:26.238Z,96.56
2023-04-26T05:50:52.869Z,92.54
2023-04-26T05:53:19.794Z,93.39
2023-04-26T05:55:46.664Z,92.35
2023-04-26T05:58:13.198Z,91.19
2023-04-26T06:00:39.946Z,87.61
2023-04-26T06:03:06.634Z,87.06
2023-04-26T06:05:33.416Z,87.54
2023-04-26T06:07:59.991Z,86.73
2023-04-26T06:10:26.603Z,88.34
2023-04-26T06:12:53.301Z,89.99
2023-04-26T06:15:19.846Z,89.66
2023-04-26T06:17:46.519Z,89.73
2023-04-26T06:20:13.045Z,89.62
2023-04-26T06:22:39.560Z,88.51
2023-04-26T06:25:07.304Z,87.21
2023-04-26T06:27:33.879Z,88.18
2023-04-26T06:30:02.909Z,86.80
2023-04-26T06:32:29.496Z,85.76
2023-04-26T06:34:56.140Z,83.79
2023-04-26T06:37:22.700Z,83.94
2023-04-26T06:39:49.249Z,82.58
2023-04-26T06:42:15.814Z,82.68
2023-04-26T06:44:42.301Z,82.47
2023-04-26T06:47:09.543Z,82.49
2023-04-26T06:49:36.366Z,83.72
2023-04-26T06:52:08.260Z,83.71
2023-04-26T06:54:39.886Z,84.69
2023-04-26T06:57:09.366Z,84.10
2023-04-26T06:59:35.904Z,83.49
2023-04-26T07:02:05.460Z,83.30
2023-04-26T07:04:35.428Z,83.31
2023-04-26T07:07:05.318Z,82.70
2023-04-26T07:09:34.727Z,79.92
2023-04-26T07:12:03.061Z,78.11
2023-04-26T07:14:29.527Z,78.60
2023-04-26T07:16:55.952Z,76.72
2023-04-26T07:19:23.316Z,77.01
2023-04-26T07:21:49.797Z,78.21
2023-04-26T07:24:16.410Z,76.33
2023-04-26T07:26:42.953Z,74.07
2023-04-26T07:29:09.455Z,71.23
2023-04-26T07:31:35.953Z,69.14
2023-04-26T07:34:03.310Z,70.76
2023-04-26T07:36:29.808Z,72.51
2023-04-26T07:38:56.329Z,71.77
2023-04-26T07:41:23.045Z,72.32
2023-04-26T07:43:49.978Z,72.37
2023-04-26T07:46:16.786Z,71.45
2023-04-26T07:48:43.328Z,71.33
2023-04-26T07:51:13.616Z,70.24
2023-04-26T07:53:41.105Z,67.91
2023-04-26T07:56:08.418Z,67.96
2023-04-26T07:58:36.136Z,62.26
2023-04-26T08:01:06.045Z,61.55
2023-04-26T08:03:36.528Z,62.48
2023-04-26T08:06:06.724Z,55.36
2023-04-26T08:08:45.570Z,56.32
2023-04-26T08:11:12.154Z,57.76
2023-04-26T08:13:38.710Z,53.71
2023-04-26T08:16:06.124Z,54.83
2023-04-26T08:18:35.462Z,52.86
2023-04-26T08:21:05.573Z,52.46
2023-04-26T08:23:36.567Z,51.67
2023-04-26T08:26:04.105Z,52.72
2023-04-26T08:28:33.339Z,52.47
2023-04-26T08:30:59.847Z,51.88
2023-04-26T08:33:26.585Z,53.36
2023-04-26T08:35:53.425Z,55.10
2023-04-26T08:38:22.437Z,55.58
2023-04-26T08:40:49.159Z,56.57
2023-04-26T08:43:19.215Z,55.29
2023-04-26T08:45:49.378Z,51.89
2023-04-26T08:48:18.213Z,52.85
2023-04-26T08:50:46.658Z,51.47
2023-04-26T08:53:20.300Z,53.05
2023-04-26T08:55:50.084Z,52.11
2023-04-26T08:58:19.849Z,48.91
2023-04-26T09:00:46.840Z,48.21
2023-04-26T09:03:13.704Z,46.94
2023-04-26T09:05:44.240Z,46.86
2023-04-26T09:08:16.149Z,48.46
2023-04-26T09:10:42.760Z,45.93
2023-04-26T09:13:09.413Z,46.67
2023-04-26T09:15:35.978Z,46.40
2023-04-26T09:18:22.163Z,43.16
2023-04-26T09:21:09.137Z,42.67
2023-04-26T09:23:36.007Z,40.95
2023-04-26T09:26:18.112Z,40.99
2023-04-26T09:28:46.474Z,41.84
2023-04-26T09:31:36.261Z,41.49
2023-04-26T09:34:06.600Z,38.62
2023-04-26T09:36:52.762Z,38.86
2023-04-26T09:39:40.531Z,38.07
2023-04-26T09:42:11.241Z,37.65
2023-04-26T09:44:38.227Z,35.27
2023-04-26T09:47:07.250Z,33.82
2023-04-26T09:49:48.840Z,32.82
2023-04-26T09:52:16.394Z,33.25
2023-04-26T09:54:51.755Z,32.03
2023-04-26T09:57:19.700Z,32.17
2023-04-26T09:59:48.588Z,32.35
2023-04-26T10:02:22.468Z,30.50
2023-04-26T10:04:54.889Z,31.04
2023-04-26T10:07:23.809Z,31.88
2023-04-26T10:09:51.219Z,33.29
2023-04-26T10:12:19.466Z,32.33
2023-04-26T10:14:47.176Z,30.54
2023-04-26T10:17:14.303Z,31.08
2023-04-26T10:19:46.422Z,31.64
2023-04-26T10:22:25.415Z,34.21
2023-04-26T10:24:54.138Z,36.15
2023-04-26T10:27:45.444Z,36.13
2023-04-26T10:30:14.048Z,38.83
2023-04-26T10:33:06.840Z,39.00
2023-04-26T10:35:38.102Z,39.08
2023-04-26T10:38:07.338Z,37.13
2023-04-26T10:40:40.869Z,37.48
2023-04-26T10:43:16.288Z,36.45
2023-04-26T10:45:44.525Z,34.45
2023-04-26T10:48:35.413Z,34.48
2023-04-26T10:51:09.119Z,34.46
2023-04-26T10:53:35.527Z,34.08
2023-04-26T10:56:05.243Z,34.68
2023-04-26T10:58:35.440Z,34.36
2023-04-26T11:01:04.880Z,34.97
2023-04-26T11:03:32.464Z,32.99
2023-04-26T11:05:59.038Z,32.39
2023-04-26T11:08:33.403Z,33.68
2023-04-26T11:11:12.564Z,33.30
2023-04-26T11:13:43.850Z,32.21
2023-04-26T11:16:17.505Z,33.02
2023-04-26T11:18:46.980Z,32.49
2023-04-26T11:21:17.655Z,30.56
2023-04-26T11:23:53.342Z,31.17
2023-04-26T11:26:19.831Z,30.06
2023-04-26T11:28:46.540Z,30.35
2023-04-26T11:31:14.500Z,30.10
2023-04-26T11:33:41.587Z,32.43
2023-04-26T11:36:08.342Z,32.83
2023-04-26T11:38:34.816Z,30.61
2023-04-26T11:41:03.591Z,30.11
2023-04-26T11:43:37.564Z,35.13
2023-04-26T11:46:05.829Z,34.19
2023-04-26T11:48:37.414Z,33.95
2023-04-26T11:51:05.480Z,32.15
2023-04-26T11:53:42.627Z,31.15
2023-04-26T11:56:16.297Z,32.16
2023-04-26T11:58:51.623Z,30.66
2023-04-26T12:01:28.454Z,31.17
2023-04-26T12:03:59.713Z,31.49
2023-04-26T12:06:32.896Z,32.07
2023-04-26T12:09:05.547Z,30.67
2023-04-26T12:11:35.121Z,31.73
2023-04-26T12:14:05.338Z,28.66
2023-04-26T12:16:32.019Z,29.83
2023-04-26T12:18:58.520Z,30.81
2023-04-26T12:21:27.448Z,33.12
2023-04-26T12:23:55.542Z,35.36
2023-04-26T12:26:22.025Z,33.84
2023-04-26T12:28:48.598Z,34.63
2023-04-26T12:31:15.157Z,34.74
2023-04-26T12:33:41.765Z,35.62
2023-04-26T12:36:12.374Z,36.42
2023-04-26T12:38:39.690Z,37.48
2023-04-26T12:41:06.285Z,39.83
2023-04-26T12:43:35.123Z,36.78
2023-04-26T12:46:01.692Z,35.59
2023-04-26T12:48:28.955Z,36.53
2023-04-26T12:50:55.907Z,35.47
2023-04-26T12:53:22.574Z,35.55
2023-04-26T12:55:49.142Z,38.39
2023-04-26T12:58:15.844Z,36.78
2023-04-26T13:00:44.455Z,35.95
2023-04-26T13:03:14.436Z,36.49
2023-04-26T13:05:41.509Z,38.42
2023-04-26T13:08:07.984Z,35.02
2023-04-26T13:10:37.708Z,33.17
2023-04-26T13:13:07.040Z,32.98
2023-04-26T13:15:35.504Z,34.30
2023-04-26T13:18:02.061Z,33.40
2023-04-26T13:20:30.785Z,37.21
2023-04-26T13:22:57.504Z,37.22
2023-04-26T13:25:23.979Z,35.38
2023-04-26T13:27:53.598Z,34.99
2023-04-26T13:30:20.409Z,35.78
2023-04-26T13:32:47.289Z,36.10
2023-04-26T13:35:14.075Z,37.16
2023-04-26T13:37:41.643Z,36.38
2023-04-26T13:40:11.237Z,37.27
2023-04-26T13:42:38.744Z,37.83
2023-04-26T13:45:14.471Z,40.47
2023-04-26T13:47:41.377Z,41.28
2023-04-26T13:50:08.180Z,41.82
2023-04-26T13:52:37.514Z,40.40
2023-04-26T13:55:07.941Z,40.95
2023-04-26T13:57:37.352Z,39.77
2023-04-26T14:00:08.114Z,39.76
2023-04-26T14:02:37.636Z,40.57
2023-04-26T14:05:05.809Z,41.86
2023-04-26T14:07:35.789Z,41.85
2023-04-26T14:10:04.695Z,39.00
2023-04-26T14:12:31.255Z,39.89
2023-04-26T14:14:57.828Z,38.72
2023-04-26T14:17:25.724Z,38.16
2023-04-26T14:19:54.112Z,37.14
2023-04-26T14:22:21.354Z,35.33
2023-04-26T14:24:47.955Z,37.49
2023-04-26T14:27:14.486Z,36.20
2023-04-26T14:29:41.047Z,37.30
2023-04-26T14:32:07.929Z,37.40
2023-04-26T14:34:39.218Z,36.96
2023-04-26T14:37:06.753Z,37.28
2023-04-26T14:39:37.526Z,36.33
2023-04-26T14:42:07.252Z,37.13
2023-04-26T14:44:39.980Z,35.73
2023-04-26T14:47:06.767Z,35.72
2023-04-26T14:49:35.543Z,37.68
2023-04-26T14:52:02.052Z,37.14
2023-04-26T14:54:28.547Z,37.25
2023-04-26T14:56:55.180Z,37.94
2023-04-26T14:59:21.803Z,38.75
2023-04-26T15:01:49.003Z,39.10
2023-04-26T15:04:15.762Z,40.78
2023-04-26T15:06:42.468Z,38.88
2023-04-26T15:09:09.245Z,39.23
2023-04-26T15:11:36.046Z,38.02
2023-04-26T15:14:04.618Z,38.14
2023-04-26T15:16:31.302Z,40.19
2023-04-26T15:18:57.768Z,39.92
2023-04-26T15:21:24.379Z,40.16
2023-04-26T15:23:51.529Z,40.60
2023-04-26T15:26:17.957Z,40.30
2023-04-26T15:28:44.544Z,42.73
2023-04-26T15:31:11.450Z,42.17
2023-04-26T15:33:38.036Z,42.35
2023-04-26T15:36:07.778Z,40.26
2023-04-26T15:38:36.128Z,40.75
2023-04-26T15:41:03.628Z,39.80
2023-04-26T15:43:30.325Z,41.25
2023-04-26T15:45:57.213Z,43.01
2023-04-26T15:48:23.771Z,43.58
2023-04-26T15:50:53.681Z,43.68
2023-04-26T15:53:21.834Z,44.71
2023-04-26T15:55:48.282Z,44.28
2023-04-26T15:58:14.811Z,44.96
2023-04-26T16:00:41.342Z,44.45
2023-04-26T16:03:07.991Z,45.51
2023-04-26T16:05:35.792Z,45.69
2023-04-26T16:08:06.108Z,46.58
2023-04-26T16:10:36.282Z,47.34
2023-04-26T16:13:07.082Z,48.13
2023-04-26T16:15:36.984Z,48.95
2023-04-26T16:18:06.118Z,48.12
2023-04-26T16:20:35.791Z,51.01
2023-04-26T16:23:02.287Z,52.04
2023-04-26T16:25:28.793Z,52.21
2023-04-26T16:27:55.306Z,51.63
2023-04-26T16:30:22.183Z,52.75
2023-04-26T16:32:48.632Z,52.99
2023-04-26T16:35:15.258Z,53.37
2023-04-26T16:37:41.810Z,53.79
2023-04-26T16:40:10.646Z,53.98
2023-04-26T16:42:37.182Z,54.41
2023-04-26T16:45:07.814Z,54.68
2023-04-26T16:47:37.056Z,55.00
2023-04-26T16:50:08.060Z,55.27
2023-04-26T16:52:37.668Z,56.15
2023-04-26T16:55:07.370Z,55.99
2023-04-26T16:57:36.562Z,56.10
2023-04-26T17:00:05.479Z,56.00
2023-04-26T17:02:32.081Z,56.49
2023-04-26T17:04:58.871Z,56.97
2023-04-26T17:07:25.411Z,57.40
2023-04-26T17:09:55.341Z,58.08
2023-04-26T17:12:22.283Z,57.90
2023-04-26T17:14:48.718Z,58.04
2023-04-26T17:17:15.237Z,57.72
2023-04-26T17:19:41.925Z,58.09
2023-04-26T17:22:12.623Z,57.47
2023-04-26T17:24:39.128Z,56.59
2023-04-26T17:27:08.184Z,56.87
2023-04-26T17:29:35.878Z,57.00
2023-04-26T17:32:04.317Z,57.01
2023-04-26T17:34:30.853Z,58.16
2023-04-26T17:36:57.389Z,58.17
2023-04-26T17:39:23.857Z,58.83
2023-04-26T17:41:51.342Z,59.13
2023-04-26T17:44:18.198Z,59.89
2023-04-26T17:46:44.662Z,60.46
2023-04-26T17:49:11.838Z,60.30
2023-04-26T17:51:38.418Z,59.78
2023-04-26T17:54:08.418Z,59.94
2023-04-26T17:56:37.838Z,60.78
2023-04-26T17:59:07.677Z,61.14
2023-04-26T18:01:37.700Z,61.29
2023-04-26T18:04:07.845Z,61.37
2023-04-26T18:06:38.072Z,61.59
2023-04-26T18:09:08.842Z,61.38
2023-04-26T18:11:35.489Z,61.70
2023-04-26T18:14:01.904Z,62.20
2023-04-26T18:16:28.908Z,62.72
2023-04-26T18:18:55.439Z,62.63
2023-04-26T18:21:23.073Z,62.78
2023-04-26T18:23:49.517Z,63.12
2023-04-26T18:26:16.042Z,63.54
2023-04-26T18:28:44.916Z,63.62
2023-04-26T18:31:11.979Z,64.09
2023-04-26T18:33:38.480Z,64.43
2023-04-26T18:36:06.600Z,63.86
2023-04-26T18:38:34.651Z,63.48
2023-04-26T18:41:01.248Z,63.15
2023-04-26T18:43:27.991Z,63.70
2023-04-26T18:45:55.484Z,64.22
2023-04-26T18:48:22.236Z,64.47
2023-04-26T18:50:52.919Z,64.78
2023-04-26T18:53:22.266Z,66.06
2023-04-26T18:55:48.995Z,65.98
2023-04-26T18:58:15.457Z,66.58
2023-04-26T19:00:41.923Z,66.18
2023-04-26T19:03:08.565Z,66.23
2023-04-26T19:05:37.333Z,65.75
2023-04-26T19:08:06.833Z,65.76
2023-04-26T19:10:33.744Z,65.55
2023-04-26T19:13:00.332Z,66.09
2023-04-26T19:15:27.157Z,66.35
2023-04-26T19:17:53.692Z,66.21
2023-04-26T19:20:20.418Z,66.13
2023-04-26T19:22:47.103Z,66.30
2023-04-26T19:25:14.773Z,66.66
2023-04-26T19:27:41.496Z,66.99
2023-04-26T19:30:08.544Z,67.00
2023-04-26T19:32:36.594Z,66.84
2023-04-26T19:35:06.272Z,66.55
2023-04-26T19:37:32.967Z,67.05
2023-04-26T19:39:59.441Z,67.35
2023-04-26T19:42:26.708Z,67.43
2023-04-26T19:44:53.526Z,66.93
2023-04-26T19:47:20.241Z,66.94
2023-04-26T19:49:47.884Z,67.91
2023-04-26T19:52:14.356Z,68.38
2023-04-26T19:54:40.965Z,69.66
2023-04-26T19:57:07.427Z,70.76
2023-04-26T19:59:36.106Z,70.43
2023-04-26T20:02:03.140Z,70.61
2023-04-26T20:04:29.670Z,71.81
2023-04-26T20:06:57.204Z,72.67
2023-04-26T20:09:23.640Z,74.34
2023-04-26T20:11:50.149Z,77.48
2023-04-26T20:14:16.600Z,77.78
2023-04-26T20:16:43.069Z,78.13
2023-04-26T20:19:10.186Z,79.74
2023-04-26T20:21:37.276Z,81.51
2023-04-26T20:24:06.360Z,82.33
2023-04-26T20:26:32.879Z,83.24
2023-04-26T20:28:59.451Z,84.25
2023-04-26T20:31:26.017Z,83.67
2023-04-26T20:33:53.535Z,82.25
2023-04-26T20:36:20.669Z,81.62
2023-04-26T20:38:47.400Z,80.23
2023-04-26T20:41:13.925Z,80.55
2023-04-26T20:43:40.410Z,80.98
2023-04-26T20:46:07.436Z,80.84
2023-04-26T20:48:33.926Z,80.84
2023-04-26T20:51:02.083Z,81.48
2023-04-26T20:53:28.716Z,82.09
2023-04-26T20:55:55.235Z,82.69
2023-04-26T20:58:21.723Z,83.06
2023-04-26T21:00:55.441Z,82.51
2023-04-26T21:03:22.904Z,83.07
2023-04-26T21:05:49.602Z,81.85
2023-04-26T21:08:16.215Z,81.17
2023-04-26T21:10:42.770Z,80.62
2023-04-26T21:13:09.378Z,80.88
2023-04-26T21:15:38.898Z,82.94
2023-04-26T21:18:07.058Z,84.78
2023-04-26T21:20:46.797Z,85.55
2023-04-26T21:23:13.419Z,86.15
2023-04-26T21:25:44.735Z,85.38
2023-04-26T21:28:11.345Z,84.38
2023-04-26T21:30:38.560Z,83.97
2023-04-26T21:33:07.895Z,83.35
2023-04-26T21:35:38.975Z,83.17
2023-04-26T21:38:07.897Z,83.15
2023-04-26T21:40:34.737Z,82.04
2023-04-26T21:43:05.319Z,81.68
2023-04-26T21:45:32.767Z,83.06
2023-04-26T21:47:59.726Z,84.07
2023-04-26T21:50:26.795Z,84.72
2023-04-26T21:52:53.581Z,85.69
2023-04-26T21:55:20.055Z,85.94
2023-04-26T21:57:46.594Z,86.00
2023-04-26T22:00:13.289Z,85.31
2023-04-26T22:02:39.850Z,84.53
2023-04-26T22:05:09.755Z,84.17
2023-04-26T22:07:36.297Z,83.32
2023-04-26T22:10:03.037Z,85.66
2023-04-26T22:12:29.506Z,87.40
2023-04-26T22:14:55.957Z,87.71
2023-04-26T22:17:22.475Z,91.14
2023-04-26T22:19:49.644Z,92.79
2023-04-26T22:22:16.602Z,94.28
2023-04-26T22:24:43.018Z,94.95
2023-04-26T22:27:12.678Z,96.50
2023-04-26T22:29:43.555Z,96.34
2023-04-26T22:32:13.672Z,97.10
2023-04-26T22:34:43.944Z,98.14
2023-04-26T22:37:21.078Z,99.41
2023-04-26T22:39:48.747Z,100.00
2023-04-26T22:42:15.284Z,100.00
2023-04-26T22:44:42.011Z,100.00
2023-04-26T22:47:08.635Z,100.00
2023-04-26T22:49:35.066Z,100.00
2023-04-26T22:52:07.662Z,100.00
2023-04-26T22:54:42.371Z,100.00
2023-04-26T22:57:08.889Z,100.00
2023-04-26T22:59:35.399Z,100.00
2023-04-26T23:02:02.098Z,100.00
2023-04-26T23:04:28.628Z,100.00
2023-04-26T23:06:55.153Z,100.00
2023-04-26T23:09:21.618Z,99.56
2023-04-26T23:11:48.290Z,99.65
2023-04-26T23:14:15.837Z,99.94
2023-04-26T23:16:45.868Z,99.88
2023-04-26T23:19:14.691Z,100.00
2023-04-26T23:21:41.848Z,100.00
2023-04-26T23:24:08.370Z,100.00
2023-04-26T23:26:34.864Z,100.00
2023-04-26T23:29:01.373Z,100.00
2023-04-26T23:31:27.880Z,100.00
2023-04-26T23:33:54.421Z,100.00
2023-04-26T23:36:20.941Z,100.00
2023-04-26T23:38:47.409Z,100.00
2023-04-26T23:41:17.128Z,100.00
2023-04-26T23:43:46.549Z,100.00
2023-04-26T23:46:15.579Z,100.00
2023-04-26T23:48:42.133Z,100.00
2023-04-26T23:51:08.598Z,100.00
2023-04-26T23:53:35.204Z,100.00
2023-04-26T23:56:01.735Z,100.00
2023-04-26T23:58:28.237Z,100.00
